createdAt,value
2022-09-05T00:00:44.646Z,99858.21
2022-09-05T00:03:53.203Z,99858.77
2022-09-05T00:06:52.675Z,99857.17
2022-09-05T00:09:38.373Z,99857.70
2022-09-05T00:12:27.798Z,99857.92
2022-09-05T00:15:39.454Z,99855.66
2022-09-05T00:24:23.270Z,99854.90
2022-09-05T00:24:32.019Z,99853.80
2022-09-05T00:26:02.688Z,99852.45
2022-09-05T00:29:06.571Z,99851.66
2022-09-05T00:32:19.389Z,99847.04
2022-09-05T00:35:14.211Z,99848.81
2022-09-05T00:38:18.375Z,99848.39
2022-09-05T00:41:13.847Z,99841.33
2022-09-05T00:44:03.208Z,99841.52
2022-09-05T00:47:40.113Z,99833.61
2022-09-05T00:50:56.137Z,99826.10
2022-09-05T00:54:01.176Z,99828.09
2022-09-05T00:57:31.845Z,99830.23
2022-09-05T01:00:23.799Z,99828.94
2022-09-05T01:03:34.556Z,99831.44
2022-09-05T01:07:04.230Z,99828.29
2022-09-05T01:10:23.789Z,99832.34
2022-09-05T01:13:43.187Z,99834.89
2022-09-05T01:16:56.275Z,99837.26
2022-09-05T01:19:44.706Z,99836.97
2022-09-05T01:22:48.569Z,99836.64
2022-09-05T01:25:48.974Z,99838.11
2022-09-05T01:29:15.940Z,99836.88
2022-09-05T01:32:22.426Z,99839.73
2022-09-05T01:35:26.338Z,99840.33
2022-09-05T01:38:27.334Z,99841.29
2022-09-05T01:41:40.200Z,99842.45
2022-09-05T01:45:04.328Z,99838.29
2022-09-05T01:48:05.857Z,99841.91
2022-09-05T01:51:29.001Z,99837.28
2022-09-05T01:54:35.184Z,99835.29
2022-09-05T01:57:58.324Z,99835.48
2022-09-05T02:01:30.161Z,99840.13
2022-09-05T02:04:22.943Z,99840.66
2022-09-05T02:07:37.834Z,99841.73
2022-09-05T02:11:03.835Z,99844.18
2022-09-05T02:14:09.414Z,99845.31
2022-09-05T02:17:08.445Z,99844.33
2022-09-05T02:20:23.600Z,99844.38
2022-09-05T02:23:32.589Z,99843.70
2022-09-05T02:26:53.345Z,99844.04
2022-09-05T02:29:57.886Z,99846.44
2022-09-05T02:32:55.445Z,99851.02
2022-09-05T02:36:17.210Z,99851.21
2022-09-05T02:45:07.281Z,99847.51
2022-09-05T02:45:18.300Z,99851.96
2022-09-05T02:46:21.522Z,99855.71
2022-09-05T02:52:16.796Z,99854.98
2022-09-05T02:57:24.143Z,99858.45
2022-09-05T02:57:35.334Z,99855.58
2022-09-05T02:59:10.930Z,99853.77
2022-09-05T03:02:30.846Z,99854.73
2022-09-05T03:05:25.344Z,99856.94
2022-09-05T03:08:24.307Z,99862.99
2022-09-05T03:12:28.921Z,99869.89
2022-09-05T03:15:46.617Z,99865.90
2022-09-05T03:18:44.245Z,99864.58
2022-09-05T03:22:00.445Z,99864.08
2022-09-05T03:25:25.316Z,99864.02
2022-09-05T03:28:47.502Z,99865.39
2022-09-05T03:32:10.402Z,99869.92
2022-09-05T03:35:15.313Z,99874.38
2022-09-05T03:38:39.761Z,99878.76
2022-09-05T03:41:56.714Z,99885.11
2022-09-05T03:44:50.976Z,99892.35
2022-09-05T03:47:38.679Z,99896.34
2022-09-05T03:55:18.605Z,99895.05
2022-09-05T03:57:14.133Z,99896.94
2022-09-05T03:57:42.600Z,99896.73
2022-09-05T04:00:36.980Z,99900.20
2022-09-05T04:08:07.893Z,99902.40
2022-09-05T04:08:29.180Z,99905.91
2022-09-05T04:10:10.965Z,99902.77
2022-09-05T04:13:19.202Z,99905.23
2022-09-05T04:16:15.527Z,99910.17
2022-09-05T04:19:14.788Z,99912.38
2022-09-05T04:22:10.471Z,99909.12
2022-09-05T04:25:10.052Z,99906.30
2022-09-05T04:28:15.264Z,99908.71
2022-09-05T04:31:30.353Z,99907.25
2022-09-05T04:34:43.042Z,99908.55
2022-09-05T04:37:48.213Z,99913.40
2022-09-05T04:41:02.065Z,99913.67
2022-09-05T04:44:03.616Z,99909.84
2022-09-05T04:47:05.468Z,99912.19
2022-09-05T04:50:02.427Z,99911.83
2022-09-05T04:53:33.549Z,99911.05
2022-09-05T04:56:27.470Z,99922.80
2022-09-05T05:03:31.287Z,99922.06
2022-09-05T05:06:13.501Z,99927.35
2022-09-05T05:06:46.941Z,99927.89
2022-09-05T05:09:45.737Z,99934.56
2022-09-05T05:17:55.976Z,99941.08
2022-09-05T05:18:16.108Z,99940.10
2022-09-05T05:20:41.159Z,99944.79
2022-09-05T05:23:08.758Z,99950.88
2022-09-05T05:26:01.837Z,99955.31
2022-09-05T05:29:02.397Z,99955.30
2022-09-05T05:32:00.056Z,99954.25
2022-09-05T05:34:56.565Z,99953.98
2022-09-05T05:38:20.823Z,99952.84
2022-09-05T05:41:22.530Z,99955.02
2022-09-05T05:44:17.140Z,99958.31
2022-09-05T05:47:26.780Z,99964.54
2022-09-05T05:50:31.247Z,99967.21
2022-09-05T05:53:32.007Z,99967.77
2022-09-05T05:56:34.398Z,99973.44
2022-09-05T05:59:35.271Z,99975.23
2022-09-05T06:02:44.229Z,99972.69
2022-09-05T06:05:44.872Z,99974.05
2022-09-05T06:11:09.428Z,99973.41
2022-09-05T06:14:59.311Z,99976.73
2022-09-05T06:15:57.396Z,99971.51
2022-09-05T06:20:08.272Z,99970.69
2022-09-05T06:23:38.653Z,99969.95
2022-09-05T06:26:53.914Z,99972.35
2022-09-05T06:30:18.449Z,99972.84
2022-09-05T06:33:09.753Z,99973.23
2022-09-05T06:36:08.965Z,99979.58
2022-09-05T06:39:23.292Z,99980.84
2022-09-05T06:42:33.436Z,99982.80
2022-09-05T06:45:28.643Z,99984.75
2022-09-05T06:48:47.056Z,99987.81
2022-09-05T06:51:47.752Z,99994.23
2022-09-05T06:55:06.653Z,99997.46
2022-09-05T06:58:22.831Z,99998.83
2022-09-05T07:01:11.582Z,100000.88
2022-09-05T07:04:31.931Z,100006.62
2022-09-05T07:07:36.715Z,100008.80
2022-09-05T07:10:50.699Z,100007.81
2022-09-05T07:13:56.857Z,100008.31
2022-09-05T07:16:56.308Z,100008.20
2022-09-05T07:20:05.671Z,100009.73
2022-09-05T07:23:51.374Z,100009.67
2022-09-05T07:26:49.622Z,100005.73
2022-09-05T07:29:35.223Z,100002.20
2022-09-05T07:32:24.433Z,100002.20
2022-09-05T07:35:31.161Z,99996.89
2022-09-05T07:38:50.222Z,99994.26
2022-09-05T07:41:54.043Z,99994.84
2022-09-05T07:44:54.223Z,99989.95
2022-09-05T07:47:55.910Z,99993.19
2022-09-05T07:56:34.715Z,99997.75
2022-09-05T07:57:06.509Z,99993.76
2022-09-05T07:57:51.395Z,99993.20
2022-09-05T08:00:53.824Z,99994.86
2022-09-05T08:03:44.134Z,99996.59
2022-09-05T08:07:46.547Z,99995.34
2022-09-05T08:10:08.518Z,99991.06
2022-09-05T08:13:24.192Z,99992.11
2022-09-05T08:16:16.293Z,99989.03
2022-09-05T08:19:39.738Z,99990.73
2022-09-05T08:22:31.093Z,99990.82
2022-09-05T08:25:27.511Z,99985.39
2022-09-05T08:28:33.765Z,99983.77
2022-09-05T08:31:52.785Z,99982.81
2022-09-05T08:34:52.548Z,99976.46
2022-09-05T08:37:43.089Z,99974.52
2022-09-05T08:40:39.358Z,99971.40
2022-09-05T08:46:36.945Z,99968.91
2022-09-05T08:47:26.171Z,99967.16
2022-09-05T08:50:56.882Z,99964.95
2022-09-05T08:54:27.521Z,99962.44
2022-09-05T08:57:25.461Z,99957.89
2022-09-05T09:00:24.183Z,99955.77
2022-09-05T09:03:22.380Z,99951.10
2022-09-05T09:06:16.124Z,99949.70
2022-09-05T09:09:18.580Z,99948.90
2022-09-05T09:12:52.226Z,99940.45
2022-09-05T09:16:11.314Z,99941.65
2022-09-05T09:19:10.977Z,99935.80
2022-09-05T09:22:23.689Z,99931.33
2022-09-05T09:25:31.840Z,99937.85
2022-09-05T09:28:49.894Z,99929.48
2022-09-05T09:32:07.496Z,99927.12
2022-09-05T09:35:20.902Z,99931.13
2022-09-05T09:38:14.937Z,99933.91
2022-09-05T09:41:19.168Z,99936.98
2022-09-05T09:44:42.552Z,99934.98
2022-09-05T09:47:56.697Z,99943.30
2022-09-05T09:50:58.319Z,99945.48
2022-09-05T09:54:21.025Z,99944.00
2022-09-05T09:57:44.368Z,99940.88
2022-09-05T10:00:51.327Z,99943.53
2022-09-05T10:09:57.954Z,99940.92
2022-09-05T10:11:09.666Z,99939.83
2022-09-05T10:14:49.672Z,99931.47
2022-09-05T10:17:46.675Z,99926.00
2022-09-05T10:21:15.719Z,99925.92
2022-09-05T10:24:19.687Z,99919.45
2022-09-05T10:27:19.809Z,99917.77
2022-09-05T10:31:52.781Z,99913.96
2022-09-05T10:35:13.000Z,99908.33
2022-09-05T10:37:12.237Z,99906.55
2022-09-05T10:40:06.503Z,99902.27
2022-09-05T10:43:11.047Z,99897.05
2022-09-05T10:45:58.484Z,99898.73
2022-09-05T10:48:58.999Z,99898.48
2022-09-05T10:52:41.394Z,99900.64
2022-09-05T10:55:55.633Z,99901.64
2022-09-05T11:01:46.948Z,99899.41
2022-09-05T11:02:34.653Z,99894.70
2022-09-05T11:05:29.683Z,99895.46
2022-09-05T11:08:28.698Z,99893.91
2022-09-05T11:11:34.687Z,99895.06
2022-09-05T11:14:52.463Z,99895.45
2022-09-05T11:17:44.889Z,99888.73
2022-09-05T11:21:04.809Z,99887.48
2022-09-05T11:24:12.402Z,99879.00
2022-09-05T11:27:25.208Z,99878.85
2022-09-05T11:30:28.392Z,99873.47
2022-09-05T11:39:59.857Z,99876.96
2022-09-05T11:40:04.817Z,99875.70
2022-09-05T11:40:35.358Z,99875.72
2022-09-05T11:44:26.230Z,99870.70
2022-09-05T11:47:48.603Z,99874.77
2022-09-05T11:50:57.857Z,99874.38
2022-09-05T11:54:15.632Z,99878.33
2022-09-05T11:57:33.218Z,99876.10
2022-09-05T12:00:34.486Z,99871.98
2022-09-05T12:04:01.586Z,99867.06
2022-09-05T12:07:31.771Z,99867.15
2022-09-05T12:10:47.031Z,99868.57
2022-09-05T12:14:20.958Z,99864.42
2022-09-05T12:17:35.206Z,99868.61
2022-09-05T12:20:37.472Z,99863.99
2022-09-05T12:24:53.355Z,99864.70
2022-09-05T12:27:42.930Z,99860.05
2022-09-05T12:30:42.436Z,99858.48
2022-09-05T12:40:54.274Z,99852.92
2022-09-05T12:41:38.506Z,99847.48
2022-09-05T12:42:10.210Z,99854.00
2022-09-05T12:44:16.905Z,99844.86
2022-09-05T12:46:45.856Z,99844.83
2022-09-05T12:49:51.903Z,99841.33
2022-09-05T12:53:06.931Z,99834.86
2022-09-05T12:56:32.253Z,99832.56
2022-09-05T13:02:58.640Z,99828.06
2022-09-05T13:03:14.117Z,99827.52
2022-09-05T13:06:21.468Z,99819.98
2022-09-05T13:09:30.875Z,99819.74
2022-09-05T13:14:57.341Z,99823.95
2022-09-05T13:16:03.535Z,99826.66
2022-09-05T13:19:07.104Z,99821.23
2022-09-05T13:21:57.731Z,99818.16
2022-09-05T13:24:50.988Z,99818.62
2022-09-05T13:27:46.651Z,99814.47
2022-09-05T13:34:34.003Z,99818.84
2022-09-05T13:38:00.004Z,99815.05
2022-09-05T13:38:13.927Z,99813.59
2022-09-05T13:40:27.482Z,99817.43
2022-09-05T13:43:26.658Z,99823.42
2022-09-05T13:46:26.554Z,99818.64
2022-09-05T13:49:39.764Z,99817.17
2022-09-05T13:52:38.776Z,99813.05
2022-09-05T13:55:38.101Z,99814.91
2022-09-05T13:58:56.842Z,99813.67
2022-09-05T14:02:25.943Z,99819.27
2022-09-05T14:05:41.532Z,99818.52
2022-09-05T14:08:44.115Z,99819.02
2022-09-05T14:11:57.937Z,99810.14
2022-09-05T14:15:12.626Z,99811.61
2022-09-05T14:18:20.226Z,99807.73
2022-09-05T14:21:19.821Z,99803.27
2022-09-05T14:24:28.319Z,99806.08
2022-09-05T14:27:25.898Z,99806.84
2022-09-05T14:32:56.059Z,99808.10
2022-09-05T14:37:40.626Z,99804.14
2022-09-05T14:37:50.985Z,99806.18
2022-09-05T14:41:04.901Z,99801.20
2022-09-05T14:44:01.660Z,99800.88
2022-09-05T14:46:49.871Z,99798.02
2022-09-05T14:49:42.468Z,99793.20
2022-09-05T14:52:20.320Z,99793.33
2022-09-05T15:02:44.407Z,99791.16
2022-09-05T15:02:54.993Z,99791.73
2022-09-05T15:06:41.148Z,99785.77
2022-09-05T15:12:14.176Z,99789.55
2022-09-05T15:12:31.376Z,99786.98
2022-09-05T15:15:26.267Z,99782.36
2022-09-05T15:18:13.737Z,99782.98
2022-09-05T15:20:46.343Z,99783.63
2022-09-05T15:23:24.566Z,99781.20
2022-09-05T15:26:04.859Z,99784.97
2022-09-05T15:28:43.741Z,99781.79
2022-09-05T15:31:25.226Z,99784.46
2022-09-05T15:33:56.856Z,99783.43
2022-09-05T15:36:40.625Z,99779.66
2022-09-05T15:39:29.400Z,99777.80
2022-09-05T15:42:24.173Z,99777.59
2022-09-05T15:45:10.105Z,99777.83
2022-09-05T15:48:02.454Z,99774.33
2022-09-05T15:50:43.388Z,99776.14
2022-09-05T15:53:25.352Z,99775.36
2022-09-05T15:56:01.185Z,99773.73
2022-09-05T15:58:52.316Z,99771.27
2022-09-05T16:01:58.631Z,99772.65
2022-09-05T16:10:27.569Z,99768.17
2022-09-05T16:10:39.106Z,99769.88
2022-09-05T16:10:39.699Z,99770.50
2022-09-05T16:13:43.623Z,99769.64
2022-09-05T16:21:47.356Z,99767.10
2022-09-05T16:23:26.465Z,99767.23
2022-09-05T16:23:33.822Z,99768.45
2022-09-05T16:25:28.379Z,99769.30
2022-09-05T16:28:16.218Z,99770.91
2022-09-05T16:30:44.002Z,99767.79
2022-09-05T16:33:16.701Z,99765.94
2022-09-05T16:35:49.903Z,99770.06
2022-09-05T16:38:48.616Z,99772.19
2022-09-05T16:41:42.419Z,99769.64
2022-09-05T16:44:36.294Z,99765.00
2022-09-05T16:47:44.950Z,99768.67
2022-09-05T16:50:34.625Z,99767.92
2022-09-05T16:53:32.288Z,99767.46
2022-09-05T16:56:30.447Z,99765.58
2022-09-05T16:59:10.630Z,99765.29
2022-09-05T17:01:50.893Z,99763.85
2022-09-05T17:04:38.826Z,99762.81
2022-09-05T17:07:32.897Z,99765.80
2022-09-05T17:10:20.021Z,99765.31
2022-09-05T17:12:54.965Z,99767.36
2022-09-05T17:15:37.587Z,99766.05
2022-09-05T17:18:19.706Z,99767.84
2022-09-05T17:20:59.109Z,99768.75
2022-09-05T17:29:15.585Z,99769.80
2022-09-05T17:29:36.091Z,99772.48
2022-09-05T17:32:52.216Z,99784.96
2022-09-05T17:35:31.554Z,99785.27
2022-09-05T17:38:34.561Z,99788.17
2022-09-05T17:41:54.602Z,99793.36
2022-09-05T17:44:44.200Z,99800.81
2022-09-05T17:47:50.163Z,99804.91
2022-09-05T17:50:53.139Z,99810.70
2022-09-05T17:53:33.713Z,99814.83
2022-09-05T17:56:04.695Z,99818.30
2022-09-05T17:58:49.307Z,99820.54
2022-09-05T18:01:26.696Z,99819.77
2022-09-05T18:04:18.053Z,99820.74
2022-09-05T18:06:59.390Z,99823.18
2022-09-05T18:09:49.639Z,99828.71
2022-09-05T18:15:27.204Z,99834.27
2022-09-05T18:17:55.150Z,99835.45
2022-09-05T18:21:12.342Z,99840.66
2022-09-05T18:23:58.930Z,99840.03
2022-09-05T18:26:37.495Z,99842.85
2022-09-05T18:29:16.182Z,99844.85
2022-09-05T18:31:45.309Z,99846.28
2022-09-05T18:34:19.716Z,99847.58
2022-09-05T18:37:29.293Z,99850.42
2022-09-05T18:40:36.399Z,99855.14
2022-09-05T18:43:20.902Z,99856.64
2022-09-05T18:46:08.065Z,99854.57
2022-09-05T18:50:08.161Z,99858.83
2022-09-05T18:52:02.059Z,99858.95
2022-09-05T18:54:36.982Z,99861.05
2022-09-05T18:57:28.482Z,99858.13
2022-09-05T19:00:07.995Z,99861.45
2022-09-05T19:02:59.370Z,99861.56
2022-09-05T19:05:51.701Z,99861.66
2022-09-05T19:08:31.951Z,99860.33
2022-09-05T19:11:27.803Z,99858.84
2022-09-05T19:14:26.186Z,99857.77
2022-09-05T19:16:52.769Z,99858.63
2022-09-05T19:19:27.336Z,99857.52
2022-09-05T19:22:39.574Z,99859.48
2022-09-05T19:24:50.232Z,99860.76
2022-09-05T19:28:05.976Z,99861.45
2022-09-05T19:36:58.902Z,99858.99
2022-09-05T19:37:03.786Z,99862.77
2022-09-05T19:37:06.263Z,99862.25
2022-09-05T19:44:01.945Z,99868.97
2022-09-05T19:47:30.684Z,99865.92
2022-09-05T19:47:34.474Z,99865.45
2022-09-05T19:50:58.642Z,99866.04
2022-09-05T19:53:26.735Z,99866.50
2022-09-05T19:55:59.784Z,99865.78
2022-09-05T19:58:30.822Z,99863.97
2022-09-05T20:01:08.425Z,99863.64
2022-09-05T20:03:45.643Z,99863.95
2022-09-05T20:06:31.996Z,99861.13
2022-09-05T20:09:20.125Z,99862.20
2022-09-05T20:11:58.896Z,99862.98
2022-09-05T20:14:31.049Z,99856.95
2022-09-05T20:17:31.575Z,99854.58
2022-09-05T20:20:15.557Z,99851.81
2022-09-05T20:22:51.500Z,99848.80
2022-09-05T20:25:35.302Z,99855.39
2022-09-05T20:28:22.429Z,99856.02
2022-09-05T20:31:08.428Z,99855.30
2022-09-05T20:33:48.146Z,99851.53
2022-09-05T20:43:08.337Z,99847.88
2022-09-05T20:43:15.472Z,99847.50
2022-09-05T20:43:32.443Z,99849.95
2022-09-05T20:45:48.442Z,99850.46
2022-09-05T20:54:07.459Z,99853.77
2022-09-05T20:54:23.019Z,99857.33
2022-09-05T20:54:34.757Z,99857.94
2022-09-05T20:57:28.944Z,99859.31
2022-09-05T21:00:06.475Z,99859.32
2022-09-05T21:02:34.734Z,99857.96
2022-09-05T21:05:20.970Z,99858.00
2022-09-05T21:08:06.890Z,99857.53
2022-09-05T21:10:57.450Z,99859.27
2022-09-05T21:13:32.822Z,99854.85
2022-09-05T21:16:19.898Z,99852.17
2022-09-05T21:18:51.952Z,99850.52
2022-09-05T21:21:30.229Z,99850.27
2022-09-05T21:24:17.534Z,99850.36
2022-09-05T21:26:52.531Z,99849.64
2022-09-05T21:29:32.781Z,99852.38
2022-09-05T21:32:10.479Z,99855.83
2022-09-05T21:34:55.204Z,99853.45
2022-09-05T21:37:26.485Z,99856.40
2022-09-05T21:40:00.954Z,99857.67
2022-09-05T21:47:33.263Z,99855.50
2022-09-05T21:47:47.727Z,99850.66
2022-09-05T21:48:16.907Z,99850.80
2022-09-05T21:51:02.731Z,99848.13
2022-09-05T21:57:53.658Z,99849.80
2022-09-05T21:59:21.637Z,99847.59
2022-09-05T21:59:46.536Z,99846.71
2022-09-05T22:02:18.256Z,99848.09
2022-09-05T22:04:48.470Z,99840.94
2022-09-05T22:07:31.811Z,99843.34
2022-09-05T22:10:08.620Z,99838.38
2022-09-05T22:12:41.569Z,99833.93
2022-09-05T22:15:27.392Z,99833.92
2022-09-05T22:18:27.064Z,99832.86
2022-09-05T22:21:32.545Z,99835.39
2022-09-05T22:23:54.168Z,99839.44
2022-09-05T22:26:22.235Z,99841.36
2022-09-05T22:28:52.553Z,99843.70
2022-09-05T22:31:23.723Z,99843.52
2022-09-05T22:33:54.815Z,99843.73
2022-09-05T22:36:24.991Z,99840.23
2022-09-05T22:38:55.258Z,99843.65
2022-09-05T22:41:30.431Z,99842.11
2022-09-05T22:44:04.933Z,99840.08
2022-09-05T22:46:33.059Z,99841.56
2022-09-05T22:49:00.909Z,99842.17
2022-09-05T22:51:28.754Z,99839.49
2022-09-05T22:53:56.787Z,99838.05
2022-09-05T22:56:34.777Z,99837.13
2022-09-05T22:59:06.871Z,99835.11
2022-09-05T23:01:37.955Z,99837.14
2022-09-05T23:04:09.088Z,99836.44
2022-09-05T23:06:38.283Z,99832.89
2022-09-05T23:09:06.176Z,99834.36
2022-09-05T23:11:36.044Z,99834.25
2022-09-05T23:14:06.894Z,99834.42
2022-09-05T23:16:37.790Z,99836.81
2022-09-05T23:19:08.427Z,99838.16
2022-09-05T23:21:36.374Z,99840.35
2022-09-05T23:24:04.726Z,99837.21
2022-09-05T23:26:35.402Z,99834.30
2022-09-05T23:29:03.477Z,99829.74
2022-09-05T23:31:33.741Z,99826.05
2022-09-05T23:34:04.701Z,99819.41
2022-09-05T23:36:34.745Z,99817.55
2022-09-05T23:39:05.585Z,99819.44
2022-09-05T23:41:35.154Z,99822.54
2022-09-05T23:44:02.975Z,99817.30
2022-09-05T23:46:35.155Z,99819.11
2022-09-05T23:49:06.134Z,99817.52
2022-09-05T23:51:36.996Z,99814.81
2022-09-05T23:54:04.717Z,99815.56
2022-09-05T23:56:32.412Z,99817.84
2022-09-05T23:59:00.360Z,99817.79
